Saskatoon, Saskatchewan

8:35 PM CST on September 16, 2014 (GMT -0600)
Saskatoon-Diefenbaker International | Change Station
CLOSE
Current Station
Airport
Location: Saskatoon,
Elevation: 1654 ft
Nearby Weather Stations

Elev 1654 ft 52.17 °N, 106.69 °W | Updated 35 minutes ago

Scattered Clouds
Scattered Clouds
61 °F
Feels Like 61 °F
N
9
Wind Variable Wind from ENE

Tomorrow is forecast to be nearly the same temperature as today.

Today
High -- | Low -- °F
--% Chance of Precip.
Yesterday
High -- | Low -- °F
Precip. -- in
6:43 AM 7:18 PM
Last Quarter, 40% visible
Pressure 29.91 in
Visibility 15.0 miles
Clouds Scattered Clouds 30000 ft
Dew Point 46 °F
Humidity 59%
Rainfall 0.00 in
Snow Depth Not available.
UV 0 out of 12
Pollen Not available.
Air Quality Not available.
Flu Activity Not available.
METAR CYXE 170200Z 07008KT 15SM SCT300 16/08 A2988 RMK CI4 SLP129 DENSITY ALT 2200FT

More Conditions Fewer Conditions

Pressure 29.91 in
Visibility 15.0 miles
Clouds Scattered Clouds 30000 ft
Dew Point 46 °F
Humidity 59%
Rainfall 0.00 in
Snow Depth Not available.
UV 0 out of 12
Pollen Not available.
Air Quality Not available.
Flu Activity Not available.
METAR CYXE 170200Z 07008KT 15SM SCT300 16/08 A2988 RMK CI4 SLP129 DENSITY ALT 2200FT

More Conditions Fewer Conditions

10-Day Weather Forecast

Almanac

Astronomy

Sep. 16, 2014 Rise Set
Actual Time 6:43 AM CST 7:18 PM CST
Civil Twilight 6:08 AM CST 7:52 PM CST
Nautical Twilight 5:28 AM CST 8:33 PM CST
Astronomical Twilight 4:44 AM CST 9:16 PM CST
Moon No Moon Rise 3:17 PM CST (9/16)
Length of Visible Light 13h 44m
Length of Day
12h 35m
Tomorrow will be 4m 0s shorter.
Last Quarter, 40% of the Moon is Illuminated
Today
Last Quarter
Sep 24
New
Oct 1
First Quarter
Oct 8
Full
Oct 15
Last Quarter

Today's Extremes

Country Highs Country Lows

Community

WunderPhotos

Upload Photos

1,753,949 photos uploaded!

Nearby

Snow Depth

Not available.

Earthquake Activity

City Distance Mag. Time & Date
No recent earthquake activity has been reported nearby.
Minimum magnitude displayed is 2.5.

Coastal Water Temperatures

Place Temperature
No Stations Reporting

Nearby Weather Stations